Time;durP1;ratioP1;P1;durP2;ratioP2;P2;SDS_P1;SDS_P2;PMS_P1;PMS_P2;Temp;Humidity;BMP_temperature;BMP_pressure;BME280_temperature;BME280_humidity;BME280_pressure;Samples;Min_cycle;Max_cycle;Signal;HPM_P1;HPM_P2
2022/08/14 00:01:27;;;;;;;21.20;14.87;;;21.20;99.90;;;;;;4192635;28;20614;-78
2022/08/14 00:03:31;;;;;;;18.33;14.33;;;21.20;99.90;;;;;;4189303;28;20235;-77
2022/08/14 00:05:33;;;;;;;17.13;13.93;;;21.10;99.90;;;;;;4189949;28;20240;-77
2022/08/14 00:07:36;;;;;;;18.10;13.57;;;21.10;99.90;;;;;;4195563;28;20746;-77
2022/08/14 00:09:38;;;;;;;17.47;13.47;;;21.10;99.90;;;;;;4194168;28;20203;-78
2022/08/14 00:11:40;;;;;;;17.90;13.67;;;21.10;99.90;;;;;;4191266;28;20229;-79
2022/08/14 00:13:42;;;;;;;18.47;13.47;;;21.00;99.90;;;;;;4190721;28;20308;-77
2022/08/14 00:15:48;;;;;;;17.80;13.93;;;21.10;99.90;;;;;;4196987;28;20241;-78
2022/08/14 00:17:51;;;;;;;17.80;13.93;;;21.00;99.90;;;;;;4193505;28;20254;-79
2022/08/14 00:19:53;;;;;;;16.87;13.33;;;21.00;99.90;;;;;;4190021;28;20662;-78
2022/08/14 00:21:55;;;;;;;14.83;12.57;;;20.90;99.90;;;;;;4187799;28;20209;-78
2022/08/14 00:23:58;;;;;;;15.83;12.57;;;21.00;99.90;;;;;;4190917;28;20249;-78
2022/08/14 00:26:00;;;;;;;17.10;12.77;;;20.90;99.90;;;;;;4191219;28;20720;-78
2022/08/14 00:28:02;;;;;;;15.10;12.13;;;20.90;99.90;;;;;;4193675;28;20934;-79
2022/08/14 00:30:08;;;;;;;15.20;12.23;;;20.90;99.90;;;;;;4190246;28;20765;-79
2022/08/14 00:32:12;;;;;;;16.57;12.80;;;20.90;99.90;;;;;;4192613;28;20268;-78
2022/08/14 00:34:14;;;;;;;15.60;12.33;;;20.80;99.90;;;;;;4187901;28;20225;-78
2022/08/14 00:36:16;;;;;;;17.53;12.83;;;20.80;99.90;;;;;;4192658;28;20356;-78
2022/08/14 00:38:18;;;;;;;16.80;13.07;;;20.80;99.90;;;;;;4191111;28;20304;-79
2022/08/14 00:40:22;;;;;;;20.90;15.70;;;20.80;99.90;;;;;;4189904;28;20208;-79
2022/08/14 00:42:28;;;;;;;21.43;14.80;;;20.80;99.90;;;;;;4186476;28;20212;-79
2022/08/14 00:44:30;;;;;;;21.10;15.40;;;20.80;99.90;;;;;;4194224;28;20221;-78
2022/08/14 00:46:32;;;;;;;23.47;16.30;;;20.70;99.90;;;;;;4192314;28;20218;-78
2022/08/14 00:48:35;;;;;;;23.33;16.47;;;20.70;99.90;;;;;;4189832;28;20658;-78
2022/08/14 00:50:38;;;;;;;23.43;15.90;;;20.70;99.90;;;;;;4189231;28;20666;-77
2022/08/14 00:52:41;;;;;;;23.77;16.20;;;20.60;99.90;;;;;;4190227;28;20219;-79
2022/08/14 00:54:43;;;;;;;23.93;16.37;;;20.50;99.90;;;;;;4189418;28;20209;-77
2022/08/14 00:56:47;;;;;;;22.33;16.07;;;20.50;99.90;;;;;;4192756;28;20202;-79
2022/08/14 00:58:49;;;;;;;22.50;16.37;;;20.50;99.90;;;;;;4190086;28;20212;-79
2022/08/14 01:00:52;;;;;;;22.23;15.87;;;20.50;99.90;;;;;;4189164;28;20281;-79
2022/08/14 01:02:54;;;;;;;23.53;15.13;;;20.50;99.90;;;;;;4189455;28;20225;-78
2022/08/14 01:05:03;;;;;;;21.73;14.53;;;20.40;99.90;;;;;;4187564;28;20213;-78
2022/08/14 01:07:06;;;;;;;19.00;14.23;;;20.40;99.90;;;;;;4188383;28;20209;-78
2022/08/14 01:09:09;;;;;;;16.97;13.53;;;20.40;99.90;;;;;;4191022;28;20206;-78
2022/08/14 01:11:14;;;;;;;17.63;12.63;;;20.40;99.90;;;;;;4187323;28;20213;-78
2022/08/14 01:13:21;;;;;;;16.17;12.27;;;20.40;99.90;;;;;;4187971;28;20239;-78
2022/08/14 01:15:23;;;;;;;16.33;12.13;;;20.40;99.90;;;;;;4191672;28;20292;-77
2022/08/14 01:21:02;;;;;;;14.50;11.80;;;20.30;99.90;;;;;;4189371;28;20224;-79
2022/08/14 01:22:12;;;;;;;14.63;11.10;;;20.30;99.90;;;;;;4191020;28;20223;-78
2022/08/14 01:24:14;;;;;;;13.47;11.10;;;20.20;99.90;;;;;;4190959;28;20235;-78
2022/08/14 01:26:19;;;;;;;13.63;11.10;;;20.20;99.90;;;;;;4189572;28;20680;-79
2022/08/14 01:28:23;;;;;;;13.90;11.27;;;20.20;99.90;;;;;;4190854;28;20285;-78
2022/08/14 01:30:26;;;;;;;14.20;11.37;;;20.20;99.90;;;;;;4192195;28;20773;-79
2022/08/14 01:32:28;;;;;;;15.07;11.07;;;20.20;99.90;;;;;;4188957;28;20730;-79
2022/08/14 01:34:31;;;;;;;11.97;10.20;;;20.10;99.90;;;;;;4188984;28;20974;-79
2022/08/14 01:36:36;;;;;;;14.07;11.37;;;20.10;99.90;;;;;;4189557;28;20214;-78
2022/08/14 01:38:42;;;;;;;14.53;10.87;;;20.00;99.90;;;;;;4187849;28;20297;-78
2022/08/14 01:40:47;;;;;;;15.27;11.27;;;20.10;99.90;;;;;;4188381;28;20735;-79
2022/08/14 01:42:49;;;;;;;13.67;11.10;;;20.00;99.90;;;;;;4192503;28;20284;-78
2022/08/14 01:44:54;;;;;;;14.57;11.33;;;20.00;99.90;;;;;;4187923;28;20750;-78
2022/08/14 01:46:57;;;;;;;15.57;11.07;;;20.00;99.90;;;;;;4191173;28;20304;-79
2022/08/14 01:49:00;;;;;;;17.37;12.77;;;19.90;99.90;;;;;;4190077;28;20312;-78
2022/08/14 01:51:05;;;;;;;16.43;11.80;;;19.90;99.90;;;;;;4187446;28;20224;-78
2022/08/14 01:53:08;;;;;;;15.00;11.97;;;20.00;99.90;;;;;;4191311;28;20598;-79
2022/08/14 01:55:13;;;;;;;15.67;12.37;;;19.90;99.90;;;;;;4190722;28;20872;-78
2022/08/14 01:57:17;;;;;;;15.77;11.90;;;19.90;99.90;;;;;;4191491;28;20200;-78
2022/08/14 01:59:21;;;;;;;15.03;12.30;;;19.90;99.90;;;;;;4196009;28;20269;-78
2022/08/14 02:01:22;;;;;;;15.53;11.93;;;19.80;99.90;;;;;;4185012;28;20650;-78
2022/08/14 02:03:27;;;;;;;16.13;11.83;;;19.80;99.90;;;;;;4191600;28;20237;-79
2022/08/14 02:05:30;;;;;;;14.90;11.47;;;19.80;99.90;;;;;;4184515;28;20612;-78
2022/08/14 02:07:32;;;;;;;16.03;11.80;;;19.80;99.90;;;;;;4188762;28;20851;-79
2022/08/14 02:09:37;;;;;;;13.33;11.37;;;19.80;99.90;;;;;;4187374;28;20561;-78
2022/08/14 02:11:40;;;;;;;15.60;12.10;;;19.70;99.90;;;;;;4186490;28;20205;-78
2022/08/14 02:13:43;;;;;;;15.53;11.87;;;19.70;99.90;;;;;;4188840;28;20469;-78
2022/08/14 02:15:45;;;;;;;14.40;11.50;;;19.80;99.90;;;;;;4190274;28;20238;-78
2022/08/14 02:17:47;;;;;;;15.13;11.67;;;19.70;99.90;;;;;;4184736;28;20760;-78
2022/08/14 02:19:49;;;;;;;14.83;11.50;;;19.70;99.90;;;;;;4185054;28;20205;-79
2022/08/14 02:21:54;;;;;;;13.30;11.37;;;19.60;99.90;;;;;;4191411;28;20213;-78
2022/08/14 02:23:56;;;;;;;14.73;11.80;;;19.70;99.90;;;;;;4186128;28;20216;-79
2022/08/14 02:26:00;;;;;;;14.20;11.33;;;19.60;99.90;;;;;;4187850;28;20202;-78
2022/08/14 02:28:04;;;;;;;15.67;11.43;;;19.60;99.90;;;;;;4184765;28;20218;-78
2022/08/14 02:30:07;;;;;;;14.07;11.10;;;19.60;99.90;;;;;;4182541;28;20212;-78
2022/08/14 02:32:12;;;;;;;14.33;10.73;;;19.60;99.90;;;;;;4180874;28;20194;-79
2022/08/14 02:34:17;;;;;;;14.27;11.20;;;19.60;99.90;;;;;;4187754;28;20263;-79
2022/08/14 02:36:19;;;;;;;13.60;11.20;;;19.60;99.90;;;;;;4186408;28;20212;-78
2022/08/14 02:38:21;;;;;;;15.53;11.53;;;19.60;99.90;;;;;;4187486;28;20210;-78
2022/08/14 02:40:23;;;;;;;15.13;12.07;;;19.50;99.90;;;;;;4187315;28;20833;-78
2022/08/14 02:42:25;;;;;;;13.43;10.93;;;19.50;99.90;;;;;;4183421;28;20634;-78
2022/08/14 02:44:28;;;;;;;14.47;11.93;;;19.50;99.90;;;;;;4187669;28;20223;-79
2022/08/14 02:46:30;;;;;;;15.90;11.33;;;19.50;99.90;;;;;;4191974;28;20206;-79
2022/08/14 02:48:35;;;;;;;14.87;11.33;;;19.50;99.90;;;;;;4183633;28;20226;-79
2022/08/14 02:50:37;;;;;;;13.77;11.57;;;19.50;99.90;;;;;;4180510;28;20219;-79
2022/08/14 02:52:39;;;;;;;14.17;11.40;;;19.50;99.90;;;;;;4180126;28;20221;-79
2022/08/14 02:54:41;;;;;;;15.00;11.70;;;19.40;99.90;;;;;;4182499;28;20216;-79
2022/08/14 02:56:42;;;;;;;16.00;12.17;;;19.40;99.90;;;;;;4188040;28;20215;-79
2022/08/14 02:58:51;;;;;;;14.87;11.70;;;19.40;99.90;;;;;;4187725;28;20328;-79
2022/08/14 03:00:55;;;;;;;13.90;10.87;;;19.40;99.90;;;;;;4184862;28;20220;-79
2022/08/14 03:03:01;;;;;;;13.97;11.23;;;19.30;99.90;;;;;;4179824;28;20234;-79
2022/08/14 03:05:03;;;;;;;15.07;11.73;;;19.30;99.90;;;;;;4181326;28;20264;-79
2022/08/14 03:07:05;;;;;;;15.33;11.70;;;19.30;99.90;;;;;;4182072;28;20212;-79
2022/08/14 03:09:11;;;;;;;14.87;11.17;;;19.30;99.90;;;;;;4190987;28;20212;-78
2022/08/14 03:11:13;;;;;;;13.60;11.27;;;19.30;99.90;;;;;;4182695;28;20579;-79
2022/08/14 03:13:15;;;;;;;15.30;11.83;;;19.30;99.90;;;;;;4200231;28;20239;-79
2022/08/14 03:15:17;;;;;;;13.50;11.03;;;19.30;99.90;;;;;;4188135;28;20277;-79
2022/08/14 03:17:20;;;;;;;14.77;11.27;;;19.30;99.90;;;;;;4184913;28;20636;-79
2022/08/14 03:19:22;;;;;;;14.03;11.37;;;19.30;99.90;;;;;;4184749;28;20216;-79
2022/08/14 03:21:25;;;;;;;14.23;11.07;;;19.20;99.90;;;;;;4180889;28;20235;-79
2022/08/14 03:23:27;;;;;;;14.83;12.13;;;19.20;99.90;;;;;;4190773;28;20309;-79
2022/08/14 03:25:32;;;;;;;14.90;11.03;;;19.20;99.90;;;;;;4179634;28;20295;-79
2022/08/14 03:27:34;;;;;;;14.60;10.57;;;19.20;99.90;;;;;;4180112;28;20236;-79
2022/08/14 03:29:37;;;;;;;14.93;11.77;;;19.20;99.90;;;;;;4186958;28;20238;-79
2022/08/14 03:31:39;;;;;;;15.57;11.60;;;19.20;99.90;;;;;;4190317;28;20204;-79
2022/08/14 03:33:43;;;;;;;14.07;11.03;;;19.20;99.90;;;;;;4184509;28;20326;-79
2022/08/14 03:35:45;;;;;;;14.57;10.50;;;19.20;99.90;;;;;;4188711;28;20225;-79
2022/08/14 03:37:47;;;;;;;14.73;11.40;;;19.20;99.90;;;;;;4186403;28;20261;-78
2022/08/14 03:39:49;;;;;;;15.27;10.87;;;19.20;99.90;;;;;;4185857;28;20295;-79
2022/08/14 03:41:56;;;;;;;14.33;11.47;;;19.20;99.90;;;;;;4192792;28;20640;-79
2022/08/14 03:44:01;;;;;;;15.00;11.13;;;19.20;99.90;;;;;;4190051;28;20246;-79
2022/08/14 03:46:03;;;;;;;15.43;11.97;;;19.20;99.90;;;;;;4192755;28;20771;-79
2022/08/14 03:48:14;;;;;;;15.40;11.30;;;19.20;99.90;;;;;;4188942;28;20245;-79
2022/08/14 03:50:17;;;;;;;15.23;11.43;;;19.20;99.90;;;;;;4194394;28;20607;-79
2022/08/14 03:52:19;;;;;;;14.63;11.00;;;19.20;99.90;;;;;;4183385;28;20200;-79
2022/08/14 03:54:21;;;;;;;13.30;10.87;;;19.20;99.90;;;;;;4183809;28;20250;-79
2022/08/14 03:56:25;;;;;;;13.33;10.53;;;19.10;99.90;;;;;;4190174;28;20236;-79
2022/08/14 03:58:28;;;;;;;12.63;10.40;;;19.20;99.90;;;;;;4193386;28;20209;-78
2022/08/14 04:00:30;;;;;;;14.27;10.30;;;19.10;99.90;;;;;;4194737;28;20618;-78
2022/08/14 04:02:33;;;;;;;13.70;10.63;;;19.10;99.90;;;;;;4192931;28;20208;-79
2022/08/14 04:04:34;;;;;;;14.20;11.03;;;19.10;99.90;;;;;;4193773;28;20202;-78
2022/08/14 04:06:38;;;;;;;12.87;10.47;;;19.10;99.90;;;;;;4192808;28;20212;-78
2022/08/14 04:08:41;;;;;;;14.00;10.60;;;19.10;99.90;;;;;;4184508;28;20208;-78
2022/08/14 04:10:45;;;;;;;13.63;10.57;;;19.10;99.90;;;;;;4191570;28;20238;-78
2022/08/14 04:12:47;;;;;;;13.47;11.00;;;19.10;99.90;;;;;;4190575;28;20215;-78
2022/08/14 04:14:51;;;;;;;13.40;10.47;;;19.10;99.90;;;;;;4185927;28;20291;-78
2022/08/14 04:16:53;;;;;;;13.13;10.23;;;19.10;99.90;;;;;;4190387;28;20234;-78
2022/08/14 04:18:56;;;;;;;12.97;10.33;;;19.10;99.90;;;;;;4185797;28;20231;-78
2022/08/14 04:20:59;;;;;;;12.30;10.37;;;19.00;99.90;;;;;;4188941;28;20209;-78
2022/08/14 04:23:05;;;;;;;13.87;10.07;;;19.00;99.90;;;;;;4188679;28;20588;-78
2022/08/14 04:25:08;;;;;;;15.50;11.20;;;19.00;99.90;;;;;;4186515;28;20203;-77
2022/08/14 04:27:12;;;;;;;14.63;11.57;;;19.00;99.90;;;;;;4190940;28;20204;-77
2022/08/14 04:29:14;;;;;;;14.10;10.33;;;19.00;99.90;;;;;;4186595;28;20206;-77
2022/08/14 04:31:19;;;;;;;14.20;10.70;;;19.00;99.90;;;;;;4185262;28;20218;-77
2022/08/14 04:33:23;;;;;;;15.20;11.77;;;19.00;99.90;;;;;;4190346;28;20215;-78
2022/08/14 04:35:25;;;;;;;15.67;11.63;;;18.90;99.90;;;;;;4189391;28;20908;-77
2022/08/14 04:44:27;;;;;;;14.07;10.67;;;19.00;99.90;;;;;;4185793;28;20329;-78
2022/08/14 04:46:29;;;;;;;14.40;10.80;;;19.00;99.90;;;;;;4186059;28;20276;-78
2022/08/14 04:48:30;;;;;;;12.93;10.20;;;19.00;99.90;;;;;;4188150;28;20232;-78
2022/08/14 04:50:32;;;;;;;13.10;10.30;;;19.00;99.90;;;;;;4186658;28;20643;-78
2022/08/14 04:52:35;;;;;;;14.33;10.73;;;19.00;99.90;;;;;;4185747;28;20198;-78
2022/08/14 04:54:37;;;;;;;13.10;10.33;;;19.10;99.90;;;;;;4184180;28;20218;-78
2022/08/14 04:56:41;;;;;;;14.33;10.80;;;19.10;99.90;;;;;;4190343;28;20271;-78
2022/08/14 04:58:46;;;;;;;13.57;10.73;;;19.10;99.90;;;;;;4185624;28;20320;-78
2022/08/14 05:00:50;;;;;;;15.23;10.37;;;19.20;99.90;;;;;;4186988;28;20204;-78
2022/08/14 05:02:52;;;;;;;13.00;9.80;;;19.20;99.90;;;;;;4186575;28;20283;-76
2022/08/14 05:04:54;;;;;;;12.67;10.40;;;19.20;99.90;;;;;;4188893;28;21011;-78
2022/08/14 05:06:56;;;;;;;13.07;10.73;;;19.20;99.90;;;;;;4186607;28;20208;-78
2022/08/14 05:09:00;;;;;;;13.37;10.43;;;19.20;99.90;;;;;;4186419;28;20213;-78
2022/08/14 05:11:05;;;;;;;11.73;9.80;;;19.20;99.90;;;;;;4187748;28;20209;-78
2022/08/14 05:13:09;;;;;;;12.00;9.87;;;19.30;99.90;;;;;;4186586;28;20757;-78
2022/08/14 05:15:12;;;;;;;12.63;9.97;;;19.30;99.90;;;;;;4180578;28;20316;-78
2022/08/14 05:17:14;;;;;;;12.70;9.67;;;19.30;99.90;;;;;;4183416;28;20215;-78
2022/08/14 05:19:16;;;;;;;13.03;10.50;;;19.30;99.90;;;;;;4188045;28;20205;-77
2022/08/14 05:21:18;;;;;;;14.23;9.93;;;19.30;99.90;;;;;;4189382;28;20286;-78
2022/08/14 05:23:21;;;;;;;13.00;10.07;;;19.40;99.90;;;;;;4188443;28;20660;-78
2022/08/14 05:25:23;;;;;;;11.67;9.20;;;19.40;99.90;;;;;;4180647;28;20551;-78
2022/08/14 05:27:25;;;;;;;11.10;9.07;;;19.40;99.90;;;;;;4186650;28;20204;-78
2022/08/14 05:29:30;;;;;;;11.83;9.33;;;19.40;99.90;;;;;;4188964;28;20696;-77
2022/08/14 05:31:31;;;;;;;11.03;9.03;;;19.40;99.90;;;;;;4184658;28;20779;-78
2022/08/14 05:33:35;;;;;;;14.17;10.00;;;19.50;99.90;;;;;;4187298;28;20261;-78
2022/08/14 05:35:37;;;;;;;12.47;10.20;;;19.50;99.90;;;;;;4188027;28;20207;-78
2022/08/14 05:37:40;;;;;;;12.50;9.63;;;19.50;99.90;;;;;;4189859;28;20625;-78
2022/08/14 05:39:43;;;;;;;12.40;9.17;;;19.50;99.90;;;;;;4187424;28;20697;-78
2022/08/14 05:41:45;;;;;;;12.50;9.87;;;19.50;99.90;;;;;;4186882;28;20285;-78
2022/08/14 05:43:47;;;;;;;12.07;9.30;;;19.50;99.90;;;;;;4186871;28;20587;-78
2022/08/14 05:45:51;;;;;;;12.17;9.83;;;19.50;99.90;;;;;;4188214;28;20620;-78
2022/08/14 05:47:53;;;;;;;11.93;9.70;;;19.60;99.90;;;;;;4189432;28;20201;-78
2022/08/14 05:49:57;;;;;;;13.37;10.27;;;19.60;99.90;;;;;;4184473;28;20842;-78
2022/08/14 05:51:59;;;;;;;13.93;10.27;;;19.60;99.90;;;;;;4185369;28;20209;-78
2022/08/14 05:54:01;;;;;;;12.63;9.57;;;19.60;99.90;;;;;;4184726;28;20233;-78
2022/08/14 05:56:03;;;;;;;12.20;10.03;;;19.70;99.90;;;;;;4189814;28;20307;-78
2022/08/14 05:58:06;;;;;;;14.60;10.57;;;19.70;99.90;;;;;;4181506;28;20270;-78
2022/08/14 06:00:10;;;;;;;14.33;10.33;;;19.70;99.90;;;;;;4186503;28;20578;-78
2022/08/14 06:02:13;;;;;;;14.50;10.53;;;19.70;99.90;;;;;;4187377;28;20632;-78
2022/08/14 06:04:15;;;;;;;13.73;10.57;;;19.70;99.90;;;;;;4183200;28;20238;-78
2022/08/14 06:06:18;;;;;;;16.57;11.03;;;19.80;99.90;;;;;;4186891;28;20653;-78
2022/08/14 06:08:22;;;;;;;13.13;10.10;;;19.80;99.90;;;;;;4186777;28;20285;-78
2022/08/14 06:10:24;;;;;;;13.00;10.10;;;19.80;99.90;;;;;;4191009;28;20236;-78
2022/08/14 06:12:26;;;;;;;13.43;9.67;;;19.90;99.90;;;;;;4183810;28;20255;-78
2022/08/14 06:14:28;;;;;;;14.23;10.20;;;19.90;99.90;;;;;;4185111;28;20232;-78
2022/08/14 06:16:30;;;;;;;13.10;9.60;;;19.90;99.90;;;;;;4185789;28;20198;-78
2022/08/14 06:18:34;;;;;;;13.60;10.03;;;19.90;99.90;;;;;;4189042;28;20711;-78
2022/08/14 06:20:36;;;;;;;12.87;9.40;;;20.00;99.90;;;;;;4179404;28;20280;-78
2022/08/14 06:22:38;;;;;;;12.23;9.57;;;20.00;99.90;;;;;;4182927;28;20290;-78
2022/08/14 06:24:40;;;;;;;11.77;9.10;;;20.00;99.90;;;;;;4185429;28;20617;-78
2022/08/14 06:26:41;;;;;;;13.37;9.50;;;20.10;99.90;;;;;;4184141;28;20209;-78
2022/08/14 06:28:43;;;;;;;12.50;9.60;;;20.10;99.90;;;;;;4184275;28;20577;-77
2022/08/14 06:30:46;;;;;;;12.17;9.27;;;20.10;99.90;;;;;;4188735;28;20284;-77
2022/08/14 06:32:48;;;;;;;11.17;8.57;;;20.20;99.90;;;;;;4186250;28;20240;-77
2022/08/14 06:34:51;;;;;;;12.17;9.60;;;20.20;99.90;;;;;;4180403;28;20214;-78
2022/08/14 06:36:55;;;;;;;12.33;9.40;;;20.30;99.90;;;;;;4185569;28;20580;-78
2022/08/14 06:38:57;;;;;;;11.63;8.97;;;20.30;99.90;;;;;;4182495;28;20213;-78
2022/08/14 06:40:59;;;;;;;10.90;8.63;;;20.40;99.90;;;;;;4185929;28;20263;-78
2022/08/14 06:43:04;;;;;;;11.03;8.43;;;20.40;99.90;;;;;;4183023;28;20237;-78
2022/08/14 06:45:07;;;;;;;10.33;8.80;;;20.50;99.90;;;;;;4184749;28;20205;-78
2022/08/14 06:47:09;;;;;;;9.77;8.27;;;20.50;99.90;;;;;;4183080;28;20230;-78
2022/08/14 06:49:11;;;;;;;10.60;8.80;;;20.60;99.90;;;;;;4184773;28;20638;-78
2022/08/14 06:51:14;;;;;;;11.87;8.83;;;20.60;99.90;;;;;;4184177;28;20654;-78
2022/08/14 06:53:18;;;;;;;11.90;8.73;;;20.70;99.90;;;;;;4183063;28;20246;-78
2022/08/14 06:55:21;;;;;;;11.03;8.30;;;20.70;99.90;;;;;;4184265;28;20220;-78
2022/08/14 06:57:23;;;;;;;10.97;8.40;;;20.80;99.90;;;;;;4183848;28;20293;-78
2022/08/14 06:59:25;;;;;;;9.07;7.70;;;20.90;99.90;;;;;;4180766;28;20224;-78
2022/08/14 07:06:07;;;;;;;10.07;8.20;;;21.10;99.90;;;;;;4186006;28;20201;-78
2022/08/14 07:08:14;;;;;;;9.73;7.93;;;21.10;99.90;;;;;;4186196;28;20216;-77
2022/08/14 07:10:16;;;;;;;9.37;7.67;;;21.20;99.90;;;;;;4185212;28;20666;-78
2022/08/14 07:12:18;;;;;;;10.83;7.93;;;21.20;99.90;;;;;;4184718;28;20240;-78
2022/08/14 07:14:20;;;;;;;10.73;8.00;;;21.30;99.90;;;;;;4183697;28;20709;-78
2022/08/14 07:16:22;;;;;;;10.63;7.27;;;21.40;99.90;;;;;;4184062;28;20212;-79
2022/08/14 07:18:25;;;;;;;9.47;8.03;;;21.50;99.90;;;;;;4180739;28;20217;-78
2022/08/14 07:20:29;;;;;;;10.57;8.67;;;21.50;99.90;;;;;;4183830;28;20209;-78
2022/08/14 07:22:30;;;;;;;9.57;7.63;;;21.60;99.90;;;;;;4185727;28;20224;-79
2022/08/14 07:24:34;;;;;;;8.73;7.23;;;21.70;99.90;;;;;;4182343;28;20213;-78
2022/08/14 07:26:36;;;;;;;9.53;7.97;;;21.70;99.90;;;;;;4178352;28;20199;-78
2022/08/14 07:28:40;;;;;;;8.77;7.57;;;21.80;99.90;;;;;;4183138;28;20307;-78
2022/08/14 07:30:42;;;;;;;11.77;8.27;;;21.90;99.90;;;;;;4183052;28;20291;-78
2022/08/14 07:32:45;;;;;;;10.43;7.97;;;21.90;99.90;;;;;;4178354;28;20206;-79
2022/08/14 07:34:46;;;;;;;10.10;8.07;;;22.00;99.90;;;;;;4185754;28;20232;-77
2022/08/14 07:36:48;;;;;;;12.23;8.57;;;22.10;99.90;;;;;;4181517;28;20555;-79
2022/08/14 07:38:53;;;;;;;9.17;7.70;;;22.10;99.90;;;;;;4188634;28;20601;-78
2022/08/14 07:40:58;;;;;;;10.07;8.60;;;22.20;99.90;;;;;;4184339;28;20198;-78
2022/08/14 07:43:00;;;;;;;11.73;8.50;;;22.20;99.90;;;;;;4186355;28;20319;-78
2022/08/14 07:45:02;;;;;;;10.30;7.90;;;22.30;99.90;;;;;;4182357;28;20207;-78
2022/08/14 07:47:06;;;;;;;10.93;8.80;;;22.30;99.90;;;;;;4178578;28;20208;-78
2022/08/14 07:49:09;;;;;;;9.33;7.80;;;22.40;99.90;;;;;;4184926;28;20232;-78
2022/08/14 07:51:11;;;;;;;11.00;9.20;;;22.50;99.90;;;;;;4182687;28;20207;-78
2022/08/14 07:53:14;;;;;;;10.13;8.63;;;22.60;99.90;;;;;;4188301;28;20686;-79
2022/08/14 07:55:17;;;;;;;10.13;8.30;;;22.60;99.90;;;;;;4182413;28;20226;-78
2022/08/14 07:57:20;;;;;;;10.30;8.80;;;22.70;99.90;;;;;;4182455;28;20235;-80
2022/08/14 07:59:23;;;;;;;10.27;8.63;;;22.70;99.90;;;;;;4186052;28;20685;-79
2022/08/14 08:01:27;;;;;;;11.70;8.60;;;22.80;99.90;;;;;;4189499;28;20284;-80
2022/08/14 08:03:33;;;;;;;10.20;8.53;;;22.90;99.90;;;;;;4187287;28;20240;-80
2022/08/14 08:05:36;;;;;;;11.03;8.73;;;23.00;99.90;;;;;;4184862;28;20216;-80
2022/08/14 08:07:39;;;;;;;11.10;9.10;;;23.00;99.90;;;;;;4186026;28;20209;-80
2022/08/14 08:09:46;;;;;;;11.27;8.97;;;23.10;99.90;;;;;;4187256;28;20307;-80
2022/08/14 08:11:48;;;;;;;10.87;9.07;;;23.10;99.90;;;;;;4189005;28;20240;-81
2022/08/14 08:13:51;;;;;;;10.73;9.10;;;23.20;99.90;;;;;;4187978;28;20296;-79
2022/08/14 08:15:55;;;;;;;9.93;8.67;;;23.20;99.90;;;;;;4189288;28;20241;-80
2022/08/14 08:17:57;;;;;;;10.97;9.00;;;23.30;99.90;;;;;;4185618;28;20207;-81
2022/08/14 08:19:59;;;;;;;10.27;8.60;;;23.40;99.90;;;;;;4189534;28;20218;-80
2022/08/14 08:22:02;;;;;;;10.97;9.37;;;23.40;99.90;;;;;;4185665;28;20205;-80
2022/08/14 08:24:05;;;;;;;9.77;8.33;;;23.50;99.90;;;;;;4186356;28;20260;-80
2022/08/14 08:26:07;;;;;;;9.77;8.20;;;23.50;99.90;;;;;;4189437;28;20212;-82
2022/08/14 08:28:10;;;;;;;9.83;7.63;;;23.60;99.90;;;;;;4190330;28;20216;-81
2022/08/14 08:30:14;;;;;;;10.07;8.30;;;23.60;99.90;;;;;;4192748;28;20237;-80
2022/08/14 08:32:16;;;;;;;9.40;8.40;;;23.70;99.90;;;;;;4186920;28;20201;-79
2022/08/14 08:34:19;;;;;;;9.70;8.57;;;23.70;99.90;;;;;;4190836;28;20303;-82
2022/08/14 08:36:21;;;;;;;10.23;8.27;;;23.80;99.90;;;;;;4193438;28;20666;-81
2022/08/14 08:38:25;;;;;;;9.27;8.23;;;23.90;99.90;;;;;;4186999;28;20201;-78
2022/08/14 08:40:29;;;;;;;10.13;8.13;;;24.00;99.90;;;;;;4190809;28;20797;-77
2022/08/14 08:42:31;;;;;;;10.33;8.30;;;24.00;99.90;;;;;;4193297;28;20216;-81
2022/08/14 08:44:33;;;;;;;10.57;8.60;;;24.10;99.90;;;;;;4191264;28;20228;-81
2022/08/14 08:46:37;;;;;;;11.40;8.63;;;24.10;99.90;;;;;;4192345;28;20283;-79
2022/08/14 08:48:46;;;;;;;11.10;8.20;;;24.20;99.90;;;;;;4189316;28;20226;-80
2022/08/14 08:50:48;;;;;;;9.90;8.60;;;24.30;99.90;;;;;;4189328;28;20204;-80
2022/08/14 08:52:53;;;;;;;11.67;9.03;;;24.40;99.90;;;;;;4188125;28;20217;-81
2022/08/14 08:54:55;;;;;;;11.33;9.07;;;24.50;99.90;;;;;;4190907;28;20210;-81
2022/08/14 08:56:58;;;;;;;11.37;9.23;;;24.50;99.90;;;;;;4192671;28;20202;-80
2022/08/14 08:59:01;;;;;;;9.70;8.00;;;24.60;99.90;;;;;;4194137;28;20607;-81
2022/08/14 09:01:03;;;;;;;9.07;7.70;;;24.70;99.90;;;;;;4191963;28;20293;-82
2022/08/14 09:03:08;;;;;;;9.90;8.07;;;24.70;99.90;;;;;;4192506;28;20761;-82
2022/08/14 09:05:10;;;;;;;12.07;9.10;;;24.80;99.90;;;;;;4191739;28;20218;-80
2022/08/14 09:07:13;;;;;;;11.27;8.70;;;24.90;99.90;;;;;;4187622;28;20213;-82
2022/08/14 09:09:22;;;;;;;12.10;8.77;;;25.00;99.90;;;;;;4191143;28;20632;-80
2022/08/14 09:11:24;;;;;;;10.67;8.90;;;25.00;99.90;;;;;;4196543;28;20244;-83
2022/08/14 09:13:26;;;;;;;10.63;8.37;;;25.10;99.90;;;;;;4190204;28;20222;-80
2022/08/14 09:15:28;;;;;;;11.20;8.47;;;25.20;99.90;;;;;;4194281;28;20225;-82
2022/08/14 09:17:32;;;;;;;10.87;8.47;;;25.30;99.90;;;;;;4189390;28;20202;-79
2022/08/14 09:19:36;;;;;;;9.30;7.83;;;25.30;99.90;;;;;;4192147;28;20210;-79
2022/08/14 09:21:40;;;;;;;11.77;8.70;;;25.40;99.90;;;;;;4189523;28;20217;-79
2022/08/14 09:23:42;;;;;;;18.03;11.13;;;25.40;99.90;;;;;;4189957;28;20234;-78
2022/08/14 09:25:46;;;;;;;13.53;10.37;;;25.60;99.90;;;;;;4185631;28;20206;-78
2022/08/14 09:27:48;;;;;;;14.90;10.47;;;25.60;99.90;;;;;;4183904;28;20290;-78
2022/08/14 09:29:51;;;;;;;13.23;9.87;;;25.80;99.90;;;;;;4184413;28;20599;-78
2022/08/14 09:31:55;;;;;;;11.73;9.30;;;25.80;99.90;;;;;;4185934;28;20249;-81
2022/08/14 09:34:07;;;;;;;13.07;9.70;;;25.80;99.90;;;;;;4186958;28;20717;-78
2022/08/14 09:36:38;;;;;;;11.40;8.97;;;25.90;99.90;;;;;;4187757;28;20233;-81
2022/08/14 09:38:47;;;;;;;11.00;8.77;;;26.00;99.90;;;;;;4163606;28;20247;-80
2022/08/14 09:40:59;;;;;;;11.53;8.33;;;26.10;99.90;;;;;;4187094;28;20659;-76
2022/08/14 09:43:11;;;;;;;9.07;7.97;;;26.20;99.90;;;;;;4188999;28;20226;-76
2022/08/14 09:45:16;;;;;;;13.00;8.43;;;26.30;99.90;;;;;;4193893;28;20671;-78
2022/08/14 09:47:18;;;;;;;11.07;7.83;;;26.40;99.90;;;;;;4193198;28;20642;-79
2022/08/14 09:49:31;;;;;;;9.20;7.93;;;26.40;99.90;;;;;;4197227;28;20640;-79
2022/08/14 09:51:41;;;;;;;9.97;8.50;;;26.50;99.20;;;;;;4194581;28;20201;-78
2022/08/14 09:53:58;;;;;;;9.30;7.97;;;26.60;99.10;;;;;;4190229;28;20236;-78
2022/08/14 09:56:04;;;;;;;10.63;8.33;;;26.70;95.40;;;;;;4188444;28;20248;-78
2022/08/14 09:58:13;;;;;;;9.33;7.73;;;26.80;96.00;;;;;;4196265;28;20206;-79
2022/08/14 10:00:18;;;;;;;9.30;7.30;;;26.90;96.50;;;;;;4188337;28;20205;-78
2022/08/14 10:02:24;;;;;;;8.43;7.53;;;26.90;95.90;;;;;;4187007;28;20218;-75
2022/08/14 10:04:27;;;;;;;8.37;7.40;;;27.00;93.90;;;;;;4186410;28;20300;-75
2022/08/14 10:06:31;;;;;;;9.07;8.10;;;27.10;92.30;;;;;;4185528;28;20217;-78
2022/08/14 10:08:44;;;;;;;9.20;7.80;;;27.20;91.50;;;;;;4187074;28;20218;-77
2022/08/14 10:10:46;;;;;;;8.57;7.00;;;27.30;91.50;;;;;;4186405;28;20233;-77
2022/08/14 10:12:48;;;;;;;8.50;7.33;;;27.30;89.10;;;;;;4187877;28;20199;-77
2022/08/14 10:14:50;;;;;;;9.30;7.70;;;27.40;84.20;;;;;;4178843;28;20202;-77
2022/08/14 10:16:54;;;;;;;9.87;7.57;;;27.50;82.40;;;;;;4184626;28;20248;-77
2022/08/14 10:19:05;;;;;;;7.93;7.13;;;27.50;80.60;;;;;;4189709;28;20209;-79
2022/08/14 10:21:10;;;;;;;8.33;7.40;;;27.60;85.40;;;;;;4190319;28;20309;-80
2022/08/14 10:23:14;;;;;;;9.53;7.60;;;27.70;85.20;;;;;;4188335;28;20225;-83
2022/08/14 10:25:18;;;;;;;8.20;7.07;;;27.80;84.30;;;;;;4188384;28;20772;-84
2022/08/14 10:27:23;;;;;;;8.83;6.80;;;27.90;81.90;;;;;;4188088;28;20233;-82
2022/08/14 10:29:36;;;;;;;9.03;7.20;;;28.00;78.90;;;;;;4188046;28;20202;-80
2022/08/14 10:31:38;;;;;;;7.00;6.30;;;28.10;76.80;;;;;;4191294;28;20206;-81
2022/08/14 10:33:40;;;;;;;9.23;7.10;;;28.20;77.00;;;;;;4189673;28;20226;-80
2022/08/14 10:35:43;;;;;;;8.97;6.80;;;28.30;69.40;;;;;;4190389;28;20233;-80
2022/08/14 10:37:48;;;;;;;7.83;7.03;;;28.40;69.40;;;;;;4189763;28;20708;-81
2022/08/14 10:40:01;;;;;;;8.03;6.93;;;28.60;68.40;;;;;;4192284;28;20230;-82
2022/08/14 10:42:07;;;;;;;8.83;7.30;;;28.60;67.40;;;;;;4186908;28;20249;-80
2022/08/14 10:44:11;;;;;;;7.73;6.93;;;28.80;65.60;;;;;;4190013;28;20745;-80
2022/08/14 10:46:16;;;;;;;8.03;6.70;;;28.80;63.80;;;;;;4187198;28;20325;-78